createdAt,value
2017-08-28T00:01:05.666Z,101237.26
2017-08-28T00:03:33.990Z,101233.92
2017-08-28T00:06:02.314Z,101227.58
2017-08-28T00:08:30.632Z,101229.35
2017-08-28T00:10:58.933Z,101219.89
2017-08-28T00:13:27.246Z,101234.42
2017-08-28T00:15:55.574Z,101239.12
2017-08-28T00:18:23.906Z,101243.29
2017-08-28T00:20:52.214Z,101235.83
2017-08-28T00:23:20.522Z,101240.91
2017-08-28T00:25:48.847Z,101234.97
2017-08-28T00:28:17.166Z,101234.20
2017-08-28T00:30:45.469Z,101228.56
2017-08-28T00:33:13.774Z,101236.27
2017-08-28T00:35:42.094Z,101224.81
2017-08-28T00:38:10.398Z,101238.65
2017-08-28T00:40:38.727Z,101236.46
2017-08-28T00:43:07.043Z,101238.23
2017-08-28T00:45:35.409Z,101237.29
2017-08-28T00:48:03.709Z,101241.51
2017-08-28T00:50:32.038Z,101243.67
2017-08-28T00:53:00.345Z,101236.24
2017-08-28T00:55:28.654Z,101217.30
2017-08-28T00:57:56.974Z,101223.36
2017-08-28T01:00:25.272Z,101229.73
2017-08-28T01:02:53.582Z,101228.38
2017-08-28T01:05:21.899Z,101231.48
2017-08-28T01:07:50.242Z,101232.52
2017-08-28T01:10:18.551Z,101236.64
2017-08-28T01:12:46.881Z,101242.44
2017-08-28T01:15:15.206Z,101240.25
2017-08-28T01:17:43.538Z,101244.91
2017-08-28T01:20:11.883Z,101238.16
2017-08-28T01:22:40.198Z,101243.01
2017-08-28T01:25:08.517Z,101240.06
2017-08-28T01:27:36.822Z,101249.41
2017-08-28T01:30:05.138Z,101250.56
2017-08-28T01:32:33.444Z,101245.75
2017-08-28T01:35:01.759Z,101246.52
2017-08-28T01:37:30.093Z,101252.72
2017-08-28T01:39:58.410Z,101242.75
2017-08-28T01:42:26.714Z,101240.10
2017-08-28T01:44:55.030Z,101238.43
2017-08-28T01:47:23.346Z,101237.37
2017-08-28T01:49:51.646Z,101237.13
2017-08-28T01:52:19.981Z,101238.32
2017-08-28T01:54:48.289Z,101236.20
2017-08-28T01:57:16.619Z,101247.47
2017-08-28T01:59:44.925Z,101244.47
2017-08-28T02:02:13.235Z,101248.34
2017-08-28T02:04:41.565Z,101257.97
2017-08-28T02:07:09.898Z,101256.56
2017-08-28T02:09:38.222Z,101258.94
2017-08-28T02:12:06.534Z,101256.70
2017-08-28T02:14:34.854Z,101259.55
2017-08-28T02:17:03.159Z,101257.29
2017-08-28T02:19:31.465Z,101261.21
2017-08-28T02:21:59.774Z,101261.59
2017-08-28T02:24:28.092Z,101258.00
2017-08-28T02:26:56.393Z,101253.16
2017-08-28T02:29:24.711Z,101254.96
2017-08-28T02:31:53.781Z,101254.70
2017-08-28T02:34:22.094Z,101251.73
2017-08-28T02:36:50.388Z,101243.50
2017-08-28T02:39:18.740Z,101242.55
2017-08-28T02:41:47.058Z,101254.80
2017-08-28T02:44:15.381Z,101249.30
2017-08-28T02:46:44.010Z,101249.80
2017-08-28T02:49:12.309Z,101252.55
2017-08-28T02:51:40.619Z,101251.00
2017-08-28T02:54:08.918Z,101255.01
2017-08-28T02:56:37.225Z,101257.13
2017-08-28T02:59:05.564Z,101254.96
2017-08-28T03:01:33.871Z,101254.23
2017-08-28T03:04:02.174Z,101260.89
2017-08-28T03:06:30.480Z,101260.33
2017-08-28T03:08:58.788Z,101261.64
2017-08-28T03:11:27.128Z,101260.06
2017-08-28T03:13:55.429Z,101257.31
2017-08-28T03:16:23.730Z,101256.70
2017-08-28T03:18:52.050Z,101263.03
2017-08-28T03:21:20.354Z,101266.75
2017-08-28T03:23:48.682Z,101262.55
2017-08-28T03:26:16.994Z,101267.00
2017-08-28T03:28:45.310Z,101274.55
2017-08-28T03:31:13.607Z,101278.09
2017-08-28T03:33:41.930Z,101276.00
2017-08-28T03:36:10.228Z,101282.09
2017-08-28T03:38:38.551Z,101285.36
2017-08-28T03:41:06.856Z,101283.17
2017-08-28T03:43:35.176Z,101284.58
2017-08-28T03:46:03.489Z,101281.41
2017-08-28T03:48:31.790Z,101282.80
2017-08-28T03:51:00.100Z,101281.07
2017-08-28T03:53:28.400Z,101285.69
2017-08-28T03:55:56.702Z,101292.00
2017-08-28T03:58:25.017Z,101289.56
2017-08-28T04:00:53.335Z,101288.98
2017-08-28T04:03:21.638Z,101293.61
2017-08-28T04:05:49.947Z,101292.25
2017-08-28T04:08:18.276Z,101293.20
2017-08-28T04:10:46.620Z,101289.94
2017-08-28T04:13:14.920Z,101294.52
2017-08-28T04:15:43.216Z,101290.10
2017-08-28T04:18:11.575Z,101292.07
2017-08-28T04:20:39.890Z,101293.84
2017-08-28T04:23:08.205Z,101295.80
2017-08-28T04:25:36.518Z,101294.34
2017-08-28T04:28:04.825Z,101297.39
2017-08-28T04:30:33.134Z,101305.11
2017-08-28T04:33:01.444Z,101310.43
2017-08-28T04:35:29.755Z,101307.91
2017-08-28T04:37:58.086Z,101305.22
2017-08-28T04:40:26.401Z,101309.64
2017-08-28T04:42:54.711Z,101315.61
2017-08-28T04:45:23.049Z,101312.48
2017-08-28T04:47:51.349Z,101316.97
2017-08-28T04:50:19.670Z,101307.17
2017-08-28T04:52:47.975Z,101301.72
2017-08-28T04:55:16.301Z,101302.18
2017-08-28T04:57:44.592Z,101301.84
2017-08-28T05:00:12.906Z,101298.95
2017-08-28T05:02:41.212Z,101296.14
2017-08-28T05:05:09.526Z,101303.06
2017-08-28T05:07:37.835Z,101306.06
2017-08-28T05:10:06.125Z,101310.64
2017-08-28T05:12:34.428Z,101306.14
2017-08-28T05:15:02.724Z,101308.66
2017-08-28T05:17:31.052Z,101314.52
2017-08-28T05:19:59.344Z,101318.82
2017-08-28T05:22:27.683Z,101317.84
2017-08-28T05:24:56.058Z,101317.59
2017-08-28T05:27:24.360Z,101321.77
2017-08-28T05:29:52.670Z,101318.50
2017-08-28T05:32:20.969Z,101321.13
2017-08-28T05:34:49.288Z,101318.17
2017-08-28T05:37:17.590Z,101317.26
2017-08-28T05:39:45.905Z,101318.41
2017-08-28T05:42:14.209Z,101319.11
2017-08-28T05:44:42.519Z,101316.78
2017-08-28T05:47:10.829Z,101322.33
2017-08-28T05:49:39.152Z,101326.73
2017-08-28T05:52:08.364Z,101321.25
2017-08-28T05:54:36.701Z,101325.25
2017-08-28T05:57:05.036Z,101324.50
2017-08-28T05:59:33.339Z,101321.51
2017-08-28T06:02:01.646Z,101322.58
2017-08-28T06:04:29.947Z,101321.84
2017-08-28T06:06:58.253Z,101321.23
2017-08-28T06:09:26.560Z,101330.38
2017-08-28T06:11:54.864Z,101323.26
2017-08-28T06:14:23.155Z,101330.00
2017-08-28T06:16:51.508Z,101329.05
2017-08-28T06:19:19.814Z,101332.73
2017-08-28T06:21:48.127Z,101335.77
2017-08-28T06:24:16.465Z,101332.02
2017-08-28T06:26:44.760Z,101338.84
2017-08-28T06:29:13.072Z,101338.75
2017-08-28T06:31:41.414Z,101340.75
2017-08-28T06:34:09.718Z,101336.36
2017-08-28T06:36:38.039Z,101336.14
2017-08-28T06:39:06.341Z,101336.59
2017-08-28T06:41:34.638Z,101334.38
2017-08-28T06:44:02.966Z,101338.18
2017-08-28T06:46:31.260Z,101336.65
2017-08-28T06:48:59.592Z,101336.34
2017-08-28T06:51:27.896Z,101342.93
2017-08-28T06:53:56.192Z,101343.55
2017-08-28T06:56:24.492Z,101338.00
2017-08-28T06:58:52.801Z,101332.04
2017-08-28T07:01:21.102Z,101331.27
2017-08-28T07:03:49.401Z,101328.98
2017-08-28T07:06:17.704Z,101331.47
2017-08-28T07:08:46.001Z,101333.34
2017-08-28T07:11:14.309Z,101333.69
2017-08-28T07:13:42.607Z,101332.15
2017-08-28T07:16:10.933Z,101334.66
2017-08-28T07:18:39.249Z,101334.38
2017-08-28T07:21:07.550Z,101337.30
2017-08-28T07:23:35.856Z,101335.74
2017-08-28T07:26:04.164Z,101342.05
2017-08-28T07:28:32.464Z,101345.09
2017-08-28T07:31:00.765Z,101346.63
2017-08-28T07:33:29.087Z,101350.61
2017-08-28T07:35:57.389Z,101349.34
2017-08-28T07:38:25.688Z,101345.89
2017-08-28T07:40:53.982Z,101343.73
2017-08-28T07:43:22.294Z,101349.91
2017-08-28T07:45:50.603Z,101354.70
2017-08-28T07:48:18.948Z,101352.13
2017-08-28T07:50:47.249Z,101346.38
2017-08-28T07:53:15.537Z,101352.44
2017-08-28T07:55:43.853Z,101347.61
2017-08-28T07:58:12.170Z,101356.16
2017-08-28T08:00:40.478Z,101359.46
2017-08-28T08:03:08.784Z,101354.31
2017-08-28T08:05:37.092Z,101356.45
2017-08-28T08:08:05.393Z,101353.14
2017-08-28T08:10:33.701Z,101350.17
2017-08-28T08:13:01.996Z,101349.55
2017-08-28T08:15:30.311Z,101348.63
2017-08-28T08:17:58.604Z,101350.36
2017-08-28T08:20:26.928Z,101356.55
2017-08-28T08:22:55.224Z,101352.48
2017-08-28T08:25:23.523Z,101355.88
2017-08-28T08:27:51.833Z,101356.30
2017-08-28T08:30:20.132Z,101355.20
2017-08-28T08:32:48.448Z,101358.80
2017-08-28T08:35:16.749Z,101354.05
2017-08-28T08:37:45.066Z,101356.78
2017-08-28T08:40:13.382Z,101360.01
2017-08-28T08:42:41.686Z,101368.80
2017-08-28T08:45:09.992Z,101363.31
2017-08-28T08:47:38.349Z,101355.48
2017-08-28T08:50:06.670Z,101355.87
2017-08-28T08:52:34.977Z,101347.74
2017-08-28T08:55:03.281Z,101353.14
2017-08-28T08:57:31.596Z,101353.20
2017-08-28T08:59:59.909Z,101350.09
2017-08-28T09:02:28.218Z,101347.22
2017-08-28T09:04:56.531Z,101348.25
2017-08-28T09:07:24.837Z,101346.36
2017-08-28T09:09:53.150Z,101343.13
2017-08-28T09:12:21.460Z,101343.00
2017-08-28T09:14:50.246Z,101344.12
2017-08-28T09:17:19.034Z,101347.22
2017-08-28T09:19:47.359Z,101350.77
2017-08-28T09:22:15.657Z,101356.58
2017-08-28T09:24:43.983Z,101360.06
2017-08-28T09:27:12.281Z,101364.95
2017-08-28T09:29:40.586Z,101360.95
2017-08-28T09:32:08.901Z,101364.19
2017-08-28T09:34:37.198Z,101360.90
2017-08-28T09:37:05.509Z,101360.86
2017-08-28T09:39:33.846Z,101362.34
2017-08-28T09:42:02.149Z,101358.47
2017-08-28T09:44:30.440Z,101360.72
2017-08-28T09:46:58.744Z,101352.94
2017-08-28T09:49:27.051Z,101357.77
2017-08-28T09:51:55.385Z,101352.98
2017-08-28T09:54:23.690Z,101357.15
2017-08-28T09:56:51.988Z,101360.19
2017-08-28T09:59:20.302Z,101357.77
2017-08-28T10:01:48.612Z,101358.02
2017-08-28T10:04:16.930Z,101362.72
2017-08-28T10:06:45.233Z,101355.59
2017-08-28T10:09:13.547Z,101360.37
2017-08-28T10:11:41.857Z,101361.92
2017-08-28T10:14:10.165Z,101357.47
2017-08-28T10:16:38.456Z,101358.52
2017-08-28T10:19:06.762Z,101356.23
2017-08-28T10:21:35.057Z,101352.95
2017-08-28T10:24:03.368Z,101364.45
2017-08-28T10:26:31.669Z,101367.41
2017-08-28T10:28:59.977Z,101362.69
2017-08-28T10:31:28.290Z,101365.77
2017-08-28T10:33:56.625Z,101360.45
2017-08-28T10:36:24.937Z,101354.59
2017-08-28T10:38:53.237Z,101348.70
2017-08-28T10:41:21.545Z,101353.92
2017-08-28T10:43:49.842Z,101350.19
2017-08-28T10:46:18.146Z,101350.42
2017-08-28T10:48:46.441Z,101347.62
2017-08-28T10:51:15.549Z,101345.48
2017-08-28T10:53:43.862Z,101350.92
2017-08-28T10:56:12.196Z,101344.30
2017-08-28T10:58:40.499Z,101352.68
2017-08-28T11:01:08.807Z,101345.83
2017-08-28T11:03:37.118Z,101337.36
2017-08-28T11:06:05.425Z,101342.88
2017-08-28T11:08:33.738Z,101337.78
2017-08-28T11:11:02.038Z,101331.36
2017-08-28T11:13:30.346Z,101332.63
2017-08-28T11:15:58.645Z,101326.22
2017-08-28T11:18:26.979Z,101327.69
2017-08-28T11:20:55.269Z,101323.20
2017-08-28T11:23:23.577Z,101323.64
2017-08-28T11:25:51.878Z,101326.06
2017-08-28T11:28:20.173Z,101316.97
2017-08-28T11:30:48.474Z,101324.45
2017-08-28T11:33:16.772Z,101317.12
2017-08-28T11:35:45.077Z,101318.44
2017-08-28T11:38:13.390Z,101308.27
2017-08-28T11:40:41.693Z,101312.27
2017-08-28T11:43:09.995Z,101304.09
2017-08-28T11:45:38.296Z,101314.55
2017-08-28T11:48:06.593Z,101305.42
2017-08-28T11:50:34.931Z,101299.91
2017-08-28T11:53:03.228Z,101298.62
2017-08-28T11:55:31.534Z,101300.38
2017-08-28T11:57:59.845Z,101297.39
2017-08-28T12:00:28.150Z,101292.77
2017-08-28T12:02:56.445Z,101296.89
2017-08-28T12:05:24.733Z,101287.05
2017-08-28T12:07:53.045Z,101286.18
2017-08-28T12:10:21.345Z,101285.17
2017-08-28T12:12:49.665Z,101283.20
2017-08-28T12:15:17.973Z,101286.31
2017-08-28T12:17:46.272Z,101279.50
2017-08-28T12:20:14.572Z,101276.78
2017-08-28T12:22:42.870Z,101287.76
2017-08-28T12:25:11.181Z,101282.11
2017-08-28T12:27:39.464Z,101291.45
2017-08-28T12:30:07.779Z,101285.86
2017-08-28T12:32:36.081Z,101285.16
2017-08-28T12:35:04.410Z,101275.75
2017-08-28T12:37:32.699Z,101277.19
2017-08-28T12:40:00.992Z,101275.95
2017-08-28T12:42:29.319Z,101273.41
2017-08-28T12:44:57.617Z,101279.86
2017-08-28T12:47:25.926Z,101279.80
2017-08-28T12:49:54.230Z,101269.88
2017-08-28T12:52:22.544Z,101274.86
2017-08-28T12:54:50.837Z,101278.08
2017-08-28T12:57:19.146Z,101274.27
2017-08-28T12:59:47.446Z,101278.06
2017-08-28T13:02:15.765Z,101276.12
2017-08-28T13:04:44.067Z,101276.17
2017-08-28T13:07:12.376Z,101264.72
2017-08-28T13:09:40.693Z,101266.72
2017-08-28T13:12:08.985Z,101264.01
2017-08-28T13:14:37.281Z,101261.74
2017-08-28T13:17:05.577Z,101261.39
2017-08-28T13:19:33.885Z,101256.44
2017-08-28T13:22:02.186Z,101261.08
2017-08-28T13:24:30.493Z,101257.44
2017-08-28T13:26:58.785Z,101248.06
2017-08-28T13:29:27.109Z,101254.01
2017-08-28T13:31:55.410Z,101249.94
2017-08-28T13:34:23.717Z,101253.77
2017-08-28T13:36:52.028Z,101250.13
2017-08-28T13:39:20.330Z,101239.20
2017-08-28T13:41:48.641Z,101240.02
2017-08-28T13:44:16.958Z,101235.02
2017-08-28T13:46:45.270Z,101240.82
2017-08-28T13:49:13.577Z,101236.16
2017-08-28T13:51:41.884Z,101233.48
2017-08-28T13:54:10.191Z,101231.98
2017-08-28T13:56:38.537Z,101231.16
2017-08-28T13:59:06.841Z,101228.70
2017-08-28T14:01:35.137Z,101224.73
2017-08-28T14:04:03.452Z,101225.23
2017-08-28T14:06:31.745Z,101222.88
2017-08-28T14:09:00.063Z,101223.58
2017-08-28T14:11:28.366Z,101220.30
2017-08-28T14:13:56.685Z,101213.88
2017-08-28T14:16:24.988Z,101214.34
2017-08-28T14:18:53.325Z,101212.05
2017-08-28T14:21:21.613Z,101210.26
2017-08-28T14:23:49.923Z,101219.05
2017-08-28T14:26:18.243Z,101206.95
2017-08-28T14:28:46.568Z,101204.19
2017-08-28T14:31:14.859Z,101207.73
2017-08-28T14:33:43.164Z,101202.42
2017-08-28T14:36:11.481Z,101199.93
2017-08-28T14:38:39.772Z,101199.92
2017-08-28T14:41:08.089Z,101198.06
2017-08-28T14:43:36.389Z,101194.66
2017-08-28T14:46:04.701Z,101194.34
2017-08-28T14:48:32.996Z,101199.02
2017-08-28T14:51:01.333Z,101198.98
2017-08-28T14:53:29.637Z,101194.09
2017-08-28T14:55:58.146Z,101196.59
2017-08-28T14:58:26.507Z,101190.25
2017-08-28T15:00:54.805Z,101194.72
2017-08-28T15:03:23.110Z,101189.60
2017-08-28T15:05:51.412Z,101188.83
2017-08-28T15:08:19.718Z,101188.73
2017-08-28T15:10:48.017Z,101187.15
2017-08-28T15:13:16.325Z,101187.94
2017-08-28T15:15:44.634Z,101183.03
2017-08-28T15:18:12.984Z,101179.92
2017-08-28T15:20:41.276Z,101183.20
2017-08-28T15:23:09.576Z,101173.45
2017-08-28T15:25:37.897Z,101171.00
2017-08-28T15:28:06.230Z,101174.97
2017-08-28T15:30:34.554Z,101173.23
2017-08-28T15:33:02.860Z,101165.95
2017-08-28T15:35:31.173Z,101171.09
2017-08-28T15:37:59.474Z,101165.03
2017-08-28T15:40:27.782Z,101165.37
2017-08-28T15:42:56.081Z,101154.34
2017-08-28T15:45:24.481Z,101154.19
2017-08-28T15:47:52.778Z,101155.73
2017-08-28T15:50:21.124Z,101154.35
2017-08-28T15:52:49.421Z,101149.59
2017-08-28T15:55:17.728Z,101144.27
2017-08-28T15:57:46.042Z,101141.81
2017-08-28T16:00:14.342Z,101149.44
2017-08-28T16:02:42.653Z,101154.84
2017-08-28T16:05:10.953Z,101154.45
2017-08-28T16:07:39.283Z,101153.66
2017-08-28T16:10:07.595Z,101160.17
2017-08-28T16:12:35.904Z,101161.33
2017-08-28T16:15:04.198Z,101162.17
2017-08-28T16:17:32.522Z,101152.83
2017-08-28T16:20:00.824Z,101152.84
2017-08-28T16:22:29.159Z,101151.99
2017-08-28T16:24:57.453Z,101152.31
2017-08-28T16:27:25.756Z,101150.64
2017-08-28T16:29:54.073Z,101144.84
2017-08-28T16:32:22.366Z,101145.23
2017-08-28T16:34:50.672Z,101139.57
2017-08-28T16:37:18.973Z,101141.25
2017-08-28T16:39:47.290Z,101138.94
2017-08-28T16:42:15.613Z,101144.02
2017-08-28T16:44:43.930Z,101147.02
2017-08-28T16:47:12.239Z,101142.31
2017-08-28T16:49:40.540Z,101137.93
2017-08-28T16:52:08.845Z,101142.77
2017-08-28T16:54:37.188Z,101148.05
2017-08-28T16:57:05.482Z,101139.66
2017-08-28T16:59:33.786Z,101141.13
2017-08-28T17:02:02.114Z,101140.58
2017-08-28T17:04:30.417Z,101143.25
2017-08-28T17:06:58.742Z,101150.88
2017-08-28T17:09:27.049Z,101150.70
2017-08-28T17:11:55.356Z,101150.24
2017-08-28T17:14:23.657Z,101145.77
2017-08-28T17:16:51.970Z,101147.28
2017-08-28T17:19:20.269Z,101155.16
2017-08-28T17:21:48.604Z,101152.39
2017-08-28T17:24:16.901Z,101153.73
2017-08-28T17:26:45.199Z,101158.13
2017-08-28T17:29:13.510Z,101156.47
2017-08-28T17:31:41.808Z,101156.19
2017-08-28T17:34:10.116Z,101158.73
2017-08-28T17:36:38.421Z,101160.61
2017-08-28T17:39:06.739Z,101164.39
2017-08-28T17:41:35.047Z,101158.11
2017-08-28T17:44:03.358Z,101158.14
2017-08-28T17:46:31.655Z,101156.13
2017-08-28T17:48:59.990Z,101154.89
2017-08-28T17:51:28.302Z,101158.48
2017-08-28T17:53:56.618Z,101161.52
2017-08-28T17:56:24.926Z,101162.31
2017-08-28T17:58:53.216Z,101157.38
2017-08-28T18:01:21.560Z,101158.89
2017-08-28T18:03:49.875Z,101162.09
2017-08-28T18:06:18.199Z,101168.43
2017-08-28T18:08:46.548Z,101169.80
2017-08-28T18:11:14.858Z,101170.58
2017-08-28T18:13:43.182Z,101176.73
2017-08-28T18:16:11.493Z,101171.19
2017-08-28T18:18:39.794Z,101172.46
2017-08-28T18:21:08.092Z,101175.12
2017-08-28T18:23:36.402Z,101171.91
2017-08-28T18:26:04.724Z,101181.66
2017-08-28T18:28:33.029Z,101173.33
2017-08-28T18:31:01.338Z,101178.94
2017-08-28T18:33:29.645Z,101182.03
2017-08-28T18:35:57.937Z,101175.77
2017-08-28T18:38:26.253Z,101182.99
2017-08-28T18:40:54.544Z,101172.02
2017-08-28T18:43:22.917Z,101179.31
2017-08-28T18:45:51.217Z,101175.63
2017-08-28T18:48:19.526Z,101182.13
2017-08-28T18:50:47.845Z,101184.22
2017-08-28T18:53:16.142Z,101187.42
2017-08-28T18:55:44.465Z,101188.01
2017-08-28T18:58:12.771Z,101193.13
2017-08-28T19:00:41.092Z,101189.95
2017-08-28T19:03:09.397Z,101193.26
2017-08-28T19:05:37.692Z,101163.41
2017-08-28T19:08:05.988Z,101199.72
2017-08-28T19:10:34.302Z,101198.63
2017-08-28T19:13:02.593Z,101193.80
2017-08-28T19:15:30.917Z,101196.99
2017-08-28T19:17:59.229Z,101195.98
2017-08-28T19:20:27.546Z,101195.80
2017-08-28T19:22:55.871Z,101194.00
2017-08-28T19:25:24.179Z,101196.65
2017-08-28T19:27:52.498Z,101198.84
2017-08-28T19:30:20.807Z,101196.13
2017-08-28T19:32:49.141Z,101204.00
2017-08-28T19:35:17.745Z,101200.03
2017-08-28T19:37:46.048Z,101205.81
2017-08-28T19:40:14.344Z,101202.74
2017-08-28T19:42:42.652Z,101198.77
2017-08-28T19:45:10.968Z,101202.05
2017-08-28T19:47:39.302Z,101202.45
2017-08-28T19:50:07.607Z,101200.80
2017-08-28T19:52:35.981Z,101205.05
2017-08-28T19:55:04.289Z,101200.89
2017-08-28T19:57:32.595Z,101202.41
2017-08-28T20:00:00.922Z,101203.37
2017-08-28T20:02:34.599Z,101214.07
2017-08-28T20:05:02.909Z,101209.92
2017-08-28T20:07:31.218Z,101211.69
2017-08-28T20:09:59.516Z,101213.88
2017-08-28T20:12:27.803Z,101209.73
2017-08-28T20:14:56.111Z,101217.23
2017-08-28T20:17:24.418Z,101215.42
2017-08-28T20:19:52.758Z,101219.40
2017-08-28T20:22:21.078Z,101218.97
2017-08-28T20:24:49.385Z,101219.36
2017-08-28T20:27:17.710Z,101222.75
2017-08-28T20:29:46.014Z,101218.19
2017-08-28T20:32:14.320Z,101221.17
2017-08-28T20:34:42.608Z,101220.30
2017-08-28T20:37:10.913Z,101224.27
2017-08-28T20:39:39.223Z,101222.20
2017-08-28T20:42:07.537Z,101228.14
2017-08-28T20:44:35.844Z,101225.36
2017-08-28T20:47:04.165Z,101227.70
2017-08-28T20:49:32.478Z,101225.75
2017-08-28T20:52:00.805Z,101225.75
2017-08-28T20:54:29.112Z,101225.06
2017-08-28T20:56:57.421Z,101218.16
2017-08-28T20:59:25.728Z,101219.55
2017-08-28T21:01:54.048Z,101221.84
2017-08-28T21:04:22.366Z,101212.63
2017-08-28T21:06:50.659Z,101220.11
2017-08-28T21:09:18.969Z,101217.65
2017-08-28T21:11:47.282Z,101210.73
2017-08-28T21:14:15.579Z,101214.44
2017-08-28T21:16:43.875Z,101210.30
2017-08-28T21:19:12.176Z,101207.09
2017-08-28T21:21:40.469Z,101204.59
2017-08-28T21:24:08.802Z,101204.44
2017-08-28T21:26:37.109Z,101205.09
2017-08-28T21:29:05.429Z,101199.66
2017-08-28T21:31:33.732Z,101206.19
2017-08-28T21:34:02.040Z,101198.23
2017-08-28T21:36:30.348Z,101193.62
2017-08-28T21:38:58.657Z,101203.31
2017-08-28T21:41:26.987Z,101194.27
2017-08-28T21:43:55.314Z,101196.53
2017-08-28T21:46:23.620Z,101198.66
2017-08-28T21:48:51.913Z,101198.58
2017-08-28T21:51:20.229Z,101196.97
2017-08-28T21:53:48.518Z,101198.16
2017-08-28T21:56:16.824Z,101198.97
2017-08-28T21:58:45.162Z,101190.71
2017-08-28T22:01:13.463Z,101192.42
2017-08-28T22:03:41.784Z,101195.07
2017-08-28T22:06:10.089Z,101190.34
2017-08-28T22:08:38.402Z,101189.84
2017-08-28T22:11:06.729Z,101191.63
2017-08-28T22:13:35.037Z,101193.37
2017-08-28T22:16:03.345Z,101188.30
2017-08-28T22:18:31.653Z,101186.62
2017-08-28T22:20:59.970Z,101191.23
2017-08-28T22:23:28.307Z,101182.75
2017-08-28T22:25:56.604Z,101188.36
2017-08-28T22:28:24.896Z,101190.82
2017-08-28T22:30:53.200Z,101187.35
2017-08-28T22:33:21.492Z,101186.56
2017-08-28T22:35:49.809Z,101177.92
2017-08-28T22:38:18.121Z,101182.87
2017-08-28T22:40:46.442Z,101187.08
2017-08-28T22:43:14.749Z,101177.91
2017-08-28T22:45:43.064Z,101178.33
2017-08-28T22:48:11.380Z,101183.30
2017-08-28T22:50:39.688Z,101177.64
2017-08-28T22:53:07.984Z,101180.64
2017-08-28T22:55:36.324Z,101171.84
2017-08-28T22:58:04.622Z,101173.03
2017-08-28T23:00:32.922Z,101166.96
2017-08-28T23:03:01.233Z,101161.21
2017-08-28T23:05:29.549Z,101168.98
2017-08-28T23:07:57.866Z,101169.97
2017-08-28T23:10:26.168Z,101158.94
2017-08-28T23:12:54.480Z,101158.11
2017-08-28T23:15:22.805Z,101158.12
2017-08-28T23:17:51.190Z,101154.00
2017-08-28T23:20:19.489Z,101156.93
2017-08-28T23:22:47.816Z,101153.46
2017-08-28T23:25:16.110Z,101148.27
2017-08-28T23:27:44.437Z,101149.83
2017-08-28T23:30:12.740Z,101151.14
2017-08-28T23:32:41.050Z,101145.63
2017-08-28T23:35:09.382Z,101148.70
2017-08-28T23:37:37.682Z,101145.34
2017-08-28T23:40:06.010Z,101146.75
2017-08-28T23:42:34.319Z,101147.75
2017-08-28T23:45:02.645Z,101147.27
2017-08-28T23:47:30.958Z,101147.12
2017-08-28T23:49:59.293Z,101147.27
2017-08-28T23:52:27.597Z,101136.09
2017-08-28T23:54:55.900Z,101140.70
2017-08-28T23:57:24.189Z,101138.09
2017-08-28T23:59:52.499Z,101141.78
